Time;durP1;ratioP1;P1;durP2;ratioP2;P2;SDS_P1;SDS_P2;PMS_P1;PMS_P2;Temp;Humidity;BMP_temperature;BMP_pressure;BME280_temperature;BME280_humidity;BME280_pressure;Samples;Min_cycle;Max_cycle;Signal;HPM_P1;HPM_P2
2022/07/28 00:02:06;;;;;;;1.67;0.88;;;;;;;;;;5119786;28;20207;-67
2022/07/28 00:04:35;;;;;;;1.45;0.70;;;;;;;;;;5120369;28;20559;-68
2022/07/28 00:07:02;;;;;;;0.68;0.68;;;;;;;;;;5119814;28;20211;-68
2022/07/28 00:09:29;;;;;;;1.20;0.60;;;;;;;;;;5119621;28;20199;-68
2022/07/28 00:11:57;;;;;;;1.15;0.70;;;;;;;;;;5120000;28;20234;-67
2022/07/28 00:14:25;;;;;;;0.70;0.70;;;;;;;;;;5119814;28;20199;-67
2022/07/28 00:16:52;;;;;;;0.95;0.80;;;;;;;;;;5119368;28;20203;-67
2022/07/28 00:19:20;;;;;;;1.20;0.80;;;;;;;;;;5119559;28;20207;-67
2022/07/28 00:21:48;;;;;;;0.73;0.70;;;;;;;;;;5119332;28;20207;-68
2022/07/28 00:24:16;;;;;;;0.70;0.70;;;;;;;;;;5120016;28;20536;-68
2022/07/28 00:26:43;;;;;;;0.60;0.60;;;;;;;;;;5119567;28;20206;-68
2022/07/28 00:29:11;;;;;;;0.82;0.70;;;;;;;;;;5128913;27;20287;-68
2022/07/28 00:31:38;;;;;;;0.80;0.80;;;;;;;;;;5132386;27;20199;-68
2022/07/28 00:34:05;;;;;;;0.70;0.70;;;;;;;;;;5119750;27;20210;-68
2022/07/28 00:36:33;;;;;;;0.80;0.80;;;;;;;;;;5133409;27;20198;-68
2022/07/28 00:39:01;;;;;;;1.10;0.77;;;;;;;;;;5139702;27;20264;-71
2022/07/28 00:41:29;;;;;;;1.30;0.80;;;;;;;;;;5130026;27;20219;-64
2022/07/28 00:43:56;;;;;;;1.10;0.80;;;;;;;;;;5118783;28;20195;-68
2022/07/28 00:46:24;;;;;;;0.90;0.80;;;;;;;;;;5131735;27;20199;-68
2022/07/28 00:48:52;;;;;;;1.52;1.00;;;;;;;;;;5139890;27;20716;-68
2022/07/28 00:51:20;;;;;;;0.77;0.77;;;;;;;;;;5135018;27;20199;-68
2022/07/28 00:53:48;;;;;;;1.23;0.80;;;;;;;;;;5119156;28;20202;-68
2022/07/28 00:56:17;;;;;;;1.88;1.00;;;;;;;;;;5119272;28;20199;-68
2022/07/28 00:58:45;;;;;;;1.77;0.90;;;;;;;;;;5118876;28;20280;-68
2022/07/28 01:01:16;;;;;;;1.85;0.73;;;;;;;;;;5122862;27;20222;-68
2022/07/28 01:03:44;;;;;;;1.45;0.75;;;;;;;;;;5123484;27;20276;-68
2022/07/28 01:06:16;;;;;;;1.27;0.90;;;;;;;;;;5127827;27;20210;-68
2022/07/28 01:08:57;;;;;;;0.82;0.80;;;;;;;;;;5138970;27;20202;-68
2022/07/28 01:11:31;;;;;;;0.73;0.73;;;;;;;;;;5131788;27;20199;-68
2022/07/28 01:14:06;;;;;;;0.93;0.80;;;;;;;;;;5118523;28;20230;-68
2022/07/28 01:16:34;;;;;;;0.80;0.80;;;;;;;;;;5118157;28;20198;-67
2022/07/28 01:19:05;;;;;;;0.85;0.80;;;;;;;;;;5118078;28;20199;-67
2022/07/28 01:21:34;;;;;;;0.80;0.80;;;;;;;;;;5109599;27;20283;-69
2022/07/28 01:24:19;;;;;;;0.90;0.90;;;;;;;;;;5138898;27;20202;-68
2022/07/28 01:26:53;;;;;;;0.80;0.75;;;;;;;;;;5138126;27;20208;-68
2022/07/28 01:29:28;;;;;;;0.80;0.80;;;;;;;;;;5138942;27;20229;-68
2022/07/28 01:32:00;;;;;;;0.85;0.80;;;;;;;;;;5138497;27;20258;-68
2022/07/28 01:34:31;;;;;;;1.00;0.90;;;;;;;;;;5138121;27;20198;-68
2022/07/28 01:36:59;;;;;;;0.82;0.80;;;;;;;;;;5138197;27;20199;-68
2022/07/28 01:39:29;;;;;;;1.60;0.98;;;;;;;;;;5138012;27;20209;-67
2022/07/28 01:41:58;;;;;;;1.27;0.80;;;;;;;;;;5137520;27;20218;-67
2022/07/28 01:44:27;;;;;;;0.82;0.73;;;;;;;;;;5138147;27;20549;-68
2022/07/28 01:46:55;;;;;;;0.95;0.85;;;;;;;;;;5137998;27;20479;-67
2022/07/28 01:49:24;;;;;;;0.85;0.85;;;;;;;;;;5138017;27;20464;-68
2022/07/28 01:51:52;;;;;;;0.80;0.80;;;;;;;;;;5136955;27;20202;-67
2022/07/28 01:54:23;;;;;;;1.10;1.00;;;;;;;;;;5138557;27;20477;-68
2022/07/28 01:56:52;;;;;;;0.80;0.80;;;;;;;;;;5137819;27;20198;-67
2022/07/28 01:59:20;;;;;;;1.00;0.90;;;;;;;;;;5138388;27;20203;-67
2022/07/28 02:01:49;;;;;;;1.45;0.90;;;;;;;;;;5137841;27;20218;-68
2022/07/28 02:04:19;;;;;;;0.65;0.65;;;;;;;;;;5137867;27;20210;-67
2022/07/28 02:06:48;;;;;;;0.75;0.75;;;;;;;;;;5138164;27;20263;-68
2022/07/28 02:09:15;;;;;;;0.95;0.95;;;;;;;;;;5138576;27;20202;-67
2022/07/28 02:11:43;;;;;;;1.10;0.80;;;;;;;;;;5138582;28;20194;-68
2022/07/28 02:14:13;;;;;;;0.80;0.80;;;;;;;;;;5138545;28;20210;-68
2022/07/28 02:16:42;;;;;;;1.13;0.90;;;;;;;;;;5138300;28;20198;-67
2022/07/28 02:19:09;;;;;;;1.33;1.08;;;;;;;;;;5139014;28;20574;-67
2022/07/28 02:21:37;;;;;;;0.90;0.80;;;;;;;;;;5138272;28;20225;-67
2022/07/28 02:24:07;;;;;;;0.73;0.73;;;;;;;;;;5138282;28;20209;-68
2022/07/28 02:26:36;;;;;;;1.50;0.80;;;;;;;;;;5138296;28;20588;-67
2022/07/28 02:29:06;;;;;;;1.27;0.98;;;;;;;;;;5130291;27;20241;-68
2022/07/28 02:31:38;;;;;;;0.80;0.80;;;;;;;;;;5117736;28;20205;-67
2022/07/28 02:34:05;;;;;;;0.70;0.70;;;;;;;;;;5117929;28;20203;-68
2022/07/28 02:36:35;;;;;;;1.10;1.00;;;;;;;;;;5117393;28;20567;-67
2022/07/28 02:39:03;;;;;;;1.02;0.95;;;;;;;;;;5117708;28;20207;-67
2022/07/28 02:41:34;;;;;;;0.90;0.90;;;;;;;;;;5117215;28;20219;-67
2022/07/28 02:44:02;;;;;;;1.08;0.98;;;;;;;;;;5120211;28;20225;-67
2022/07/28 02:46:33;;;;;;;1.27;0.75;;;;;;;;;;5121647;28;20221;-68
2022/07/28 02:49:03;;;;;;;1.67;0.85;;;;;;;;;;5121795;28;20195;-67
2022/07/28 02:51:32;;;;;;;1.20;1.10;;;;;;;;;;5120351;28;20192;-68
2022/07/28 02:54:00;;;;;;;1.10;0.88;;;;;;;;;;5120765;28;20199;-67
2022/07/28 02:56:29;;;;;;;0.80;0.80;;;;;;;;;;5120581;28;20268;-67
2022/07/28 02:58:59;;;;;;;1.27;1.00;;;;;;;;;;5121322;28;20211;-68
2022/07/28 03:01:26;;;;;;;0.77;0.77;;;;;;;;;;5121056;28;20215;-67
2022/07/28 03:03:54;;;;;;;0.80;0.80;;;;;;;;;;5121566;28;20284;-68
2022/07/28 03:06:22;;;;;;;1.05;1.00;;;;;;;;;;5121150;28;20199;-67
2022/07/28 03:08:50;;;;;;;1.05;0.95;;;;;;;;;;5121626;28;20287;-68
2022/07/28 03:11:19;;;;;;;1.23;0.85;;;;;;;;;;5120415;28;20384;-67
2022/07/28 03:13:46;;;;;;;1.25;1.00;;;;;;;;;;5120897;28;20297;-67
2022/07/28 03:16:15;;;;;;;1.05;0.95;;;;;;;;;;5121011;28;20199;-67
2022/07/28 03:18:42;;;;;;;0.80;0.80;;;;;;;;;;5120465;28;20268;-68
2022/07/28 03:21:09;;;;;;;0.82;0.82;;;;;;;;;;5119452;28;20234;-68
2022/07/28 03:23:38;;;;;;;1.15;1.05;;;;;;;;;;5100274;28;20475;-67
2022/07/28 03:26:07;;;;;;;0.85;0.85;;;;;;;;;;5102916;28;20271;-67
2022/07/28 03:28:36;;;;;;;0.90;0.90;;;;;;;;;;5124161;27;20250;-67
2022/07/28 03:31:06;;;;;;;0.90;0.90;;;;;;;;;;5141489;27;20194;-67
2022/07/28 03:33:35;;;;;;;0.90;0.90;;;;;;;;;;5140741;27;20680;-68
2022/07/28 03:36:05;;;;;;;1.05;1.00;;;;;;;;;;5139437;27;20210;-67
2022/07/28 03:38:34;;;;;;;1.02;0.90;;;;;;;;;;5121555;27;20268;-67
2022/07/28 03:41:02;;;;;;;1.00;1.00;;;;;;;;;;5121337;27;20786;-67
2022/07/28 03:43:29;;;;;;;0.75;0.75;;;;;;;;;;5139071;27;20535;-67
2022/07/28 03:45:57;;;;;;;0.75;0.75;;;;;;;;;;5140870;27;20274;-67
2022/07/28 03:48:28;;;;;;;1.00;0.90;;;;;;;;;;5140736;27;20210;-67
2022/07/28 03:50:58;;;;;;;1.00;0.90;;;;;;;;;;5138116;27;20198;-68
2022/07/28 03:53:25;;;;;;;1.10;1.00;;;;;;;;;;5138731;27;20195;-67
2022/07/28 03:55:53;;;;;;;0.90;0.70;;;;;;;;;;5138824;27;20550;-68
2022/07/28 03:58:21;;;;;;;0.82;0.82;;;;;;;;;;5140322;27;20202;-67
2022/07/28 04:00:49;;;;;;;0.80;0.80;;;;;;;;;;5140057;27;20222;-67
2022/07/28 04:03:17;;;;;;;1.02;0.93;;;;;;;;;;5136404;27;20198;-67
2022/07/28 04:05:44;;;;;;;0.90;0.90;;;;;;;;;;5139976;27;20195;-67
2022/07/28 04:08:13;;;;;;;0.80;0.80;;;;;;;;;;5140397;27;20255;-67
2022/07/28 04:10:41;;;;;;;1.48;1.00;;;;;;;;;;5140501;27;20217;-69
2022/07/28 04:13:08;;;;;;;0.95;0.95;;;;;;;;;;5136165;27;20202;-67
2022/07/28 04:15:35;;;;;;;1.10;1.00;;;;;;;;;;5140701;27;20250;-67
2022/07/28 04:18:03;;;;;;;0.85;0.85;;;;;;;;;;5120174;27;20199;-67
2022/07/28 04:20:30;;;;;;;0.95;0.90;;;;;;;;;;5119505;28;20203;-67
2022/07/28 04:22:58;;;;;;;1.02;1.00;;;;;;;;;;5119152;27;20203;-67
2022/07/28 04:25:28;;;;;;;0.85;0.85;;;;;;;;;;5119482;28;20476;-67
2022/07/28 04:27:56;;;;;;;0.90;0.90;;;;;;;;;;5118710;28;20582;-67
2022/07/28 04:30:24;;;;;;;0.70;0.70;;;;;;;;;;5119159;28;20235;-67
2022/07/28 04:32:52;;;;;;;0.90;0.90;;;;;;;;;;5117667;28;20203;-67
2022/07/28 04:35:22;;;;;;;1.10;1.00;;;;;;;;;;5118897;28;20210;-67
2022/07/28 04:37:50;;;;;;;1.23;1.13;;;;;;;;;;5118488;28;20221;-67
2022/07/28 04:40:17;;;;;;;0.82;0.82;;;;;;;;;;5118940;28;20242;-67
2022/07/28 04:42:46;;;;;;;1.00;0.90;;;;;;;;;;5118031;28;20610;-67
2022/07/28 04:45:14;;;;;;;1.20;1.10;;;;;;;;;;5118757;28;20207;-67
2022/07/28 04:47:41;;;;;;;1.13;0.90;;;;;;;;;;5118018;28;20237;-67
2022/07/28 04:50:10;;;;;;;0.80;0.80;;;;;;;;;;5119442;28;20488;-68
2022/07/28 04:52:38;;;;;;;0.75;0.75;;;;;;;;;;5118128;28;20451;-69
2022/07/28 04:55:06;;;;;;;1.45;1.20;;;;;;;;;;5118846;28;20230;-67
2022/07/28 04:57:34;;;;;;;1.08;1.00;;;;;;;;;;5118244;28;20253;-69
2022/07/28 05:00:03;;;;;;;0.82;0.82;;;;;;;;;;5117879;28;20206;-68
2022/07/28 05:02:30;;;;;;;0.90;0.90;;;;;;;;;;5117291;28;20508;-67
2022/07/28 05:04:58;;;;;;;1.05;0.93;;;;;;;;;;5117940;28;20195;-67
2022/07/28 05:07:25;;;;;;;1.13;1.00;;;;;;;;;;5117113;28;20195;-67
2022/07/28 05:09:52;;;;;;;1.23;1.00;;;;;;;;;;5118078;28;20203;-67
2022/07/28 05:12:19;;;;;;;0.80;0.80;;;;;;;;;;5116835;28;20268;-67
2022/07/28 05:14:47;;;;;;;1.00;0.90;;;;;;;;;;5117975;28;20653;-67
2022/07/28 05:17:15;;;;;;;1.10;1.00;;;;;;;;;;5117163;28;20199;-67
2022/07/28 05:19:43;;;;;;;1.02;0.90;;;;;;;;;;5117215;28;20199;-67
2022/07/28 05:22:10;;;;;;;1.17;1.00;;;;;;;;;;5117685;28;20222;-67
2022/07/28 05:24:37;;;;;;;1.10;1.00;;;;;;;;;;5117890;28;20477;-67
2022/07/28 05:27:05;;;;;;;1.00;1.00;;;;;;;;;;5117397;28;20207;-67
2022/07/28 05:29:33;;;;;;;1.20;1.10;;;;;;;;;;5129600;27;20236;-67
2022/07/28 05:32:00;;;;;;;1.10;1.00;;;;;;;;;;5136082;27;20190;-68
2022/07/28 05:34:29;;;;;;;1.10;1.00;;;;;;;;;;5137266;27;20212;-67
2022/07/28 05:36:56;;;;;;;1.20;1.10;;;;;;;;;;5135562;27;20191;-69
2022/07/28 05:39:24;;;;;;;1.08;1.08;;;;;;;;;;5119043;28;20207;-67
2022/07/28 05:41:51;;;;;;;1.23;1.10;;;;;;;;;;5120245;27;20244;-67
2022/07/28 05:44:18;;;;;;;1.08;1.00;;;;;;;;;;5137196;27;20588;-67
2022/07/28 05:46:46;;;;;;;1.02;0.90;;;;;;;;;;5127391;27;20580;-67
2022/07/28 05:49:13;;;;;;;1.15;1.05;;;;;;;;;;5117001;28;20203;-67
2022/07/28 05:51:42;;;;;;;1.13;1.02;;;;;;;;;;5117895;27;20256;-67
2022/07/28 05:54:09;;;;;;;1.30;1.15;;;;;;;;;;5137214;27;20678;-67
2022/07/28 05:56:36;;;;;;;0.95;0.95;;;;;;;;;;5136346;27;20517;-67
2022/07/28 05:59:08;;;;;;;0.95;0.90;;;;;;;;;;5136882;27;20210;-67
2022/07/28 06:01:36;;;;;;;0.98;0.90;;;;;;;;;;5135963;27;20496;-67
2022/07/28 06:04:04;;;;;;;3.05;1.00;;;;;;;;;;5127035;27;20690;-67
2022/07/28 06:06:31;;;;;;;1.38;1.02;;;;;;;;;;5136342;27;20198;-67
2022/07/28 06:09:00;;;;;;;1.00;1.00;;;;;;;;;;5136774;27;20206;-67
2022/07/28 06:11:27;;;;;;;1.10;1.00;;;;;;;;;;5134572;27;20566;-67
2022/07/28 06:13:55;;;;;;;1.15;1.02;;;;;;;;;;5115937;28;20261;-68
2022/07/28 06:16:22;;;;;;;1.20;1.10;;;;;;;;;;5121904;28;20206;-67
2022/07/28 06:18:50;;;;;;;1.10;1.00;;;;;;;;;;5138683;27;20267;-69
2022/07/28 06:21:18;;;;;;;1.10;1.00;;;;;;;;;;5141044;27;20209;-67
2022/07/28 06:23:45;;;;;;;1.10;1.00;;;;;;;;;;5121712;27;20498;-67
2022/07/28 06:26:14;;;;;;;1.45;0.93;;;;;;;;;;5120483;28;20478;-68
2022/07/28 06:28:41;;;;;;;1.02;1.02;;;;;;;;;;5119985;28;20295;-67
2022/07/28 06:31:09;;;;;;;1.52;1.05;;;;;;;;;;5119883;28;20249;-67
2022/07/28 06:33:37;;;;;;;1.00;1.00;;;;;;;;;;5119539;28;20195;-67
2022/07/28 06:36:04;;;;;;;1.17;1.08;;;;;;;;;;5119002;28;20277;-67
2022/07/28 06:38:31;;;;;;;0.85;0.85;;;;;;;;;;5119944;28;20199;-67
2022/07/28 06:40:59;;;;;;;2.25;1.10;;;;;;;;;;5119622;28;20603;-67
2022/07/28 06:43:27;;;;;;;1.00;0.90;;;;;;;;;;5118745;28;20232;-67
2022/07/28 06:45:55;;;;;;;1.10;1.00;;;;;;;;;;5119648;28;20599;-67
2022/07/28 06:48:22;;;;;;;1.05;1.05;;;;;;;;;;5118567;28;20207;-67
2022/07/28 06:50:50;;;;;;;1.10;1.00;;;;;;;;;;5118710;28;20249;-67
2022/07/28 06:53:17;;;;;;;1.23;1.05;;;;;;;;;;5118506;28;20191;-67
2022/07/28 06:55:44;;;;;;;1.38;1.20;;;;;;;;;;5119108;28;20207;-67
2022/07/28 06:58:12;;;;;;;1.15;1.05;;;;;;;;;;5119528;28;20657;-67
2022/07/28 07:00:41;;;;;;;0.98;0.90;;;;;;;;;;5119059;28;20240;-67
2022/07/28 07:03:08;;;;;;;1.55;1.30;;;;;;;;;;5118995;28;20238;-67
2022/07/28 07:05:35;;;;;;;1.90;1.25;;;;;;;;;;5118079;28;20203;-67
2022/07/28 07:08:02;;;;;;;1.70;1.13;;;;;;;;;;5118991;28;20264;-67
2022/07/28 07:10:30;;;;;;;1.05;1.00;;;;;;;;;;5118146;28;20210;-67
2022/07/28 07:12:57;;;;;;;1.17;1.08;;;;;;;;;;5117673;28;20245;-67
2022/07/28 07:15:25;;;;;;;1.10;1.10;;;;;;;;;;5117311;28;20203;-67
2022/07/28 07:17:54;;;;;;;2.47;1.30;;;;;;;;;;5117350;28;20207;-67
2022/07/28 07:20:21;;;;;;;2.03;1.20;;;;;;;;;;5118958;28;20302;-67
2022/07/28 07:22:48;;;;;;;1.75;1.27;;;;;;;;;;5118050;28;20219;-67
2022/07/28 07:25:17;;;;;;;1.10;1.10;;;;;;;;;;5119617;28;20556;-67
2022/07/28 07:27:44;;;;;;;1.35;1.00;;;;;;;;;;5118204;28;20195;-67
2022/07/28 07:30:12;;;;;;;1.55;1.20;;;;;;;;;;5117446;28;20223;-67
2022/07/28 07:32:42;;;;;;;1.10;1.00;;;;;;;;;;5118487;28;20666;-67
2022/07/28 07:35:11;;;;;;;1.65;1.10;;;;;;;;;;5117937;28;20500;-67
2022/07/28 07:37:38;;;;;;;1.52;1.00;;;;;;;;;;5118150;28;20203;-67
2022/07/28 07:40:06;;;;;;;1.30;1.20;;;;;;;;;;5116596;28;20234;-67
2022/07/28 07:42:33;;;;;;;1.58;1.13;;;;;;;;;;5117907;28;20227;-67
2022/07/28 07:45:01;;;;;;;1.38;1.10;;;;;;;;;;5116971;28;20292;-67
2022/07/28 07:47:28;;;;;;;1.55;1.23;;;;;;;;;;5115025;28;20238;-67
2022/07/28 07:49:56;;;;;;;1.55;1.13;;;;;;;;;;5096262;28;20297;-67
2022/07/28 07:52:25;;;;;;;1.83;1.30;;;;;;;;;;5113638;28;20219;-67
2022/07/28 07:54:52;;;;;;;2.35;1.30;;;;;;;;;;5116849;28;20215;-67
2022/07/28 07:57:19;;;;;;;1.20;1.10;;;;;;;;;;5115816;28;20611;-67
2022/07/28 07:59:46;;;;;;;1.52;1.10;;;;;;;;;;5116231;28;20789;-67
2022/07/28 08:02:14;;;;;;;1.23;1.13;;;;;;;;;;5116169;28;20663;-67
2022/07/28 08:04:41;;;;;;;1.30;1.20;;;;;;;;;;5116663;28;20642;-67
2022/07/28 08:07:08;;;;;;;1.38;1.15;;;;;;;;;;5115897;28;20329;-67
2022/07/28 08:09:37;;;;;;;2.13;1.30;;;;;;;;;;5116942;28;20254;-67
2022/07/28 08:12:04;;;;;;;1.25;1.15;;;;;;;;;;5116991;28;20224;-67
2022/07/28 08:14:32;;;;;;;1.38;1.27;;;;;;;;;;5116947;28;20231;-67
2022/07/28 08:16:59;;;;;;;1.63;1.40;;;;;;;;;;5115679;28;20272;-67
2022/07/28 08:19:27;;;;;;;2.95;1.23;;;;;;;;;;5116213;28;20231;-67
2022/07/28 08:21:55;;;;;;;1.52;1.20;;;;;;;;;;5116599;28;20222;-67
2022/07/28 08:24:22;;;;;;;1.60;1.20;;;;;;;;;;5116341;28;20226;-67
2022/07/28 08:26:51;;;;;;;1.67;1.42;;;;;;;;;;5116305;28;20231;-67
2022/07/28 08:29:19;;;;;;;1.85;1.10;;;;;;;;;;5115548;28;20237;-67
2022/07/28 08:31:46;;;;;;;1.33;1.20;;;;;;;;;;5116344;28;20317;-67
2022/07/28 08:34:13;;;;;;;2.05;1.15;;;;;;;;;;5116587;28;20493;-66
2022/07/28 08:36:41;;;;;;;1.42;1.08;;;;;;;;;;5115987;28;20559;-67
2022/07/28 08:39:08;;;;;;;2.17;1.23;;;;;;;;;;5116104;28;20238;-67
2022/07/28 08:41:40;;;;;;;1.83;1.45;;;;;;;;;;5115401;28;20280;-67
2022/07/28 08:44:11;;;;;;;2.20;1.40;;;;;;;;;;5116285;28;20738;-67
2022/07/28 08:46:38;;;;;;;1.65;1.20;;;;;;;;;;5115437;28;20245;-67
2022/07/28 08:49:08;;;;;;;2.63;1.50;;;;;;;;;;5115817;28;20222;-67
2022/07/28 08:51:36;;;;;;;1.60;1.48;;;;;;;;;;5115461;28;20227;-67
2022/07/28 08:54:03;;;;;;;2.38;1.38;;;;;;;;;;5116086;28;20276;-67
2022/07/28 08:56:31;;;;;;;1.77;1.30;;;;;;;;;;5116273;28;20288;-67
2022/07/28 08:58:59;;;;;;;1.33;1.20;;;;;;;;;;5116434;28;20296;-67
2022/07/28 09:01:27;;;;;;;2.40;1.55;;;;;;;;;;5116024;28;20284;-67
2022/07/28 09:03:55;;;;;;;2.40;1.40;;;;;;;;;;5114996;28;20239;-67
2022/07/28 09:06:23;;;;;;;2.75;1.63;;;;;;;;;;5115488;28;20798;-67
2022/07/28 09:08:50;;;;;;;2.03;1.52;;;;;;;;;;5114802;28;20211;-67
2022/07/28 09:11:18;;;;;;;1.75;1.40;;;;;;;;;;5115673;28;20226;-67
2022/07/28 09:13:45;;;;;;;1.50;1.40;;;;;;;;;;5115422;28;20223;-67
2022/07/28 09:16:14;;;;;;;1.38;1.23;;;;;;;;;;5115086;28;20746;-67
2022/07/28 09:18:42;;;;;;;1.98;1.60;;;;;;;;;;5115732;28;20227;-67
2022/07/28 09:21:13;;;;;;;1.65;1.55;;;;;;;;;;5114634;28;20250;-67
2022/07/28 09:23:44;;;;;;;1.48;1.35;;;;;;;;;;5115316;28;20230;-67
2022/07/28 09:26:12;;;;;;;1.40;1.30;;;;;;;;;;5114344;28;20539;-67
2022/07/28 09:28:47;;;;;;;1.45;1.35;;;;;;;;;;5115890;27;20246;-67
2022/07/28 09:31:15;;;;;;;2.10;1.50;;;;;;;;;;5114952;28;20787;-67
2022/07/28 09:33:53;;;;;;;3.40;1.50;;;;;;;;;;5114538;28;20207;-67
2022/07/28 09:36:20;;;;;;;1.77;1.63;;;;;;;;;;5114417;28;20227;-67
2022/07/28 09:38:48;;;;;;;2.20;1.60;;;;;;;;;;5114612;28;20564;-67
2022/07/28 09:41:17;;;;;;;2.75;1.60;;;;;;;;;;5114024;28;20218;-67
2022/07/28 09:43:45;;;;;;;1.63;1.52;;;;;;;;;;5115004;28;20308;-67
2022/07/28 09:46:13;;;;;;;1.90;1.70;;;;;;;;;;5115364;28;20602;-67
2022/07/28 09:48:52;;;;;;;1.63;1.50;;;;;;;;;;5115290;28;20239;-67
2022/07/28 09:51:20;;;;;;;3.30;1.70;;;;;;;;;;5114323;28;20333;-67
2022/07/28 09:53:48;;;;;;;1.60;1.50;;;;;;;;;;5114989;28;20223;-67
2022/07/28 09:56:15;;;;;;;1.52;1.42;;;;;;;;;;5115333;28;20234;-67
2022/07/28 09:58:42;;;;;;;2.13;1.70;;;;;;;;;;5114980;28;20235;-67
2022/07/28 10:01:11;;;;;;;1.67;1.50;;;;;;;;;;5114571;28;20313;-67
2022/07/28 10:03:40;;;;;;;1.60;1.50;;;;;;;;;;5113960;28;20230;-67
2022/07/28 10:06:15;;;;;;;2.22;1.60;;;;;;;;;;5113776;28;20621;-67
2022/07/28 10:08:43;;;;;;;2.03;1.67;;;;;;;;;;5113962;28;20575;-67
2022/07/28 10:11:11;;;;;;;1.63;1.52;;;;;;;;;;5116667;28;20219;-67
2022/07/28 10:13:51;;;;;;;2.45;1.60;;;;;;;;;;5114731;28;20231;-67
2022/07/28 10:16:19;;;;;;;2.05;1.80;;;;;;;;;;5113991;28;20272;-67
2022/07/28 10:18:47;;;;;;;1.70;1.50;;;;;;;;;;5113554;28;20227;-67
2022/07/28 10:21:17;;;;;;;2.53;1.60;;;;;;;;;;5115323;28;20215;-67
2022/07/28 10:23:47;;;;;;;1.92;1.80;;;;;;;;;;5114138;28;20325;-67
2022/07/28 10:26:15;;;;;;;1.80;1.70;;;;;;;;;;5113237;28;20326;-67
2022/07/28 10:28:47;;;;;;;1.88;1.50;;;;;;;;;;5113528;28;20242;-67
2022/07/28 10:31:18;;;;;;;1.60;1.50;;;;;;;;;;5113682;28;20657;-67
2022/07/28 10:33:49;;;;;;;1.83;1.63;;;;;;;;;;5113034;28;20227;-67
2022/07/28 10:36:18;;;;;;;1.73;1.63;;;;;;;;;;5113811;28;20223;-67
2022/07/28 10:38:46;;;;;;;1.60;1.50;;;;;;;;;;5112827;28;20230;-67
2022/07/28 10:41:14;;;;;;;1.70;1.60;;;;;;;;;;5113431;28;20231;-67
2022/07/28 10:43:42;;;;;;;1.75;1.65;;;;;;;;;;5112961;28;20226;-67
2022/07/28 10:46:09;;;;;;;1.60;1.50;;;;;;;;;;5114016;28;20223;-67
2022/07/28 10:48:37;;;;;;;1.85;1.75;;;;;;;;;;5113937;28;20568;-67
2022/07/28 10:51:04;;;;;;;2.45;1.80;;;;;;;;;;5112533;28;20211;-67
2022/07/28 10:53:36;;;;;;;1.77;1.67;;;;;;;;;;5113313;28;20219;-67
2022/07/28 10:56:06;;;;;;;1.92;1.83;;;;;;;;;;5112690;28;20219;-67
2022/07/28 10:58:38;;;;;;;2.33;1.45;;;;;;;;;;5113091;28;20219;-67
2022/07/28 11:01:05;;;;;;;1.63;1.52;;;;;;;;;;5112308;28;20284;-67
2022/07/28 11:03:38;;;;;;;1.60;1.50;;;;;;;;;;5112634;28;20231;-67
2022/07/28 11:06:24;;;;;;;2.45;1.92;;;;;;;;;;5115402;28;20218;-67
2022/07/28 11:08:53;;;;;;;1.55;1.40;;;;;;;;;;5116431;28;20253;-67
2022/07/28 11:11:35;;;;;;;2.45;2.08;;;;;;;;;;5116788;28;20227;-67
2022/07/28 11:14:19;;;;;;;2.13;1.70;;;;;;;;;;5116198;28;20241;-67
2022/07/28 11:16:46;;;;;;;1.80;1.70;;;;;;;;;;5116573;28;20225;-67
2022/07/28 11:19:15;;;;;;;1.92;1.73;;;;;;;;;;5116899;28;20227;-66
2022/07/28 11:22:09;;;;;;;2.50;1.80;;;;;;;;;;5116226;28;20214;-67
2022/07/28 11:24:51;;;;;;;1.95;1.70;;;;;;;;;;5115234;28;20810;-69
2022/07/28 11:27:40;;;;;;;1.70;1.60;;;;;;;;;;5114715;28;20335;-67
2022/07/28 11:30:07;;;;;;;1.83;1.55;;;;;;;;;;5134539;27;20706;-67
2022/07/28 11:32:49;;;;;;;1.88;1.70;;;;;;;;;;5136209;27;20230;-67
2022/07/28 11:35:17;;;;;;;2.25;1.75;;;;;;;;;;5136370;27;20214;-67
2022/07/28 11:38:03;;;;;;;2.17;1.67;;;;;;;;;;5135831;27;20222;-67
2022/07/28 11:40:32;;;;;;;1.45;1.35;;;;;;;;;;5135842;27;20226;-67
2022/07/28 11:43:14;;;;;;;1.92;1.70;;;;;;;;;;5135334;27;20253;-66
2022/07/28 11:45:42;;;;;;;1.85;1.70;;;;;;;;;;5135560;27;20210;-67
2022/07/28 11:48:20;;;;;;;1.73;1.63;;;;;;;;;;5136120;27;20575;-67
2022/07/28 11:51:09;;;;;;;2.50;1.50;;;;;;;;;;5136816;27;20518;-67
2022/07/28 11:53:36;;;;;;;1.50;1.40;;;;;;;;;;5115981;28;20219;-67
2022/07/28 11:56:04;;;;;;;1.70;1.42;;;;;;;;;;5118181;27;20223;-67
2022/07/28 11:58:31;;;;;;;1.83;1.70;;;;;;;;;;5135663;27;20234;-67
2022/07/28 12:01:13;;;;;;;1.63;1.48;;;;;;;;;;5135577;27;20585;-67
2022/07/28 12:03:41;;;;;;;1.52;1.30;;;;;;;;;;5135867;27;20970;-67
2022/07/28 12:06:08;;;;;;;1.50;1.40;;;;;;;;;;5134820;27;20234;-67
2022/07/28 12:08:50;;;;;;;1.92;1.50;;;;;;;;;;5136602;27;20225;-67
2022/07/28 12:11:17;;;;;;;2.30;1.70;;;;;;;;;;5133966;27;20706;-69
2022/07/28 12:13:45;;;;;;;1.70;1.60;;;;;;;;;;5134453;27;20621;-67
2022/07/28 12:16:14;;;;;;;1.52;1.42;;;;;;;;;;5133520;27;20698;-67
2022/07/28 12:18:41;;;;;;;1.80;1.60;;;;;;;;;;5133880;27;20242;-67
2022/07/28 12:21:08;;;;;;;1.70;1.40;;;;;;;;;;5135259;27;20271;-67
2022/07/28 12:23:37;;;;;;;1.70;1.60;;;;;;;;;;5114492;28;20269;-67
2022/07/28 12:26:05;;;;;;;2.20;1.40;;;;;;;;;;5118385;27;20579;-67
2022/07/28 12:28:32;;;;;;;1.58;1.27;;;;;;;;;;5135678;27;20295;-67
2022/07/28 12:31:11;;;;;;;2.75;1.48;;;;;;;;;;5134813;27;20325;-67
2022/07/28 12:33:40;;;;;;;2.05;1.52;;;;;;;;;;5114805;28;20230;-67
2022/07/28 12:36:07;;;;;;;2.30;1.70;;;;;;;;;;5118043;27;20215;-67
2022/07/28 12:38:35;;;;;;;1.50;1.30;;;;;;;;;;5135727;27;20222;-67
2022/07/28 12:41:02;;;;;;;1.73;1.60;;;;;;;;;;5135150;27;20231;-67
2022/07/28 12:43:30;;;;;;;2.17;1.70;;;;;;;;;;5133991;27;20284;-67
2022/07/28 12:45:58;;;;;;;1.42;1.33;;;;;;;;;;5134616;27;20257;-67
2022/07/28 12:48:26;;;;;;;2.67;1.45;;;;;;;;;;5133918;27;20287;-67
2022/07/28 12:50:56;;;;;;;1.52;1.40;;;;;;;;;;5134438;27;20234;-67
2022/07/28 12:53:24;;;;;;;2.00;1.60;;;;;;;;;;5133623;27;20626;-67
2022/07/28 12:56:00;;;;;;;1.58;1.48;;;;;;;;;;5135353;27;20228;-67
2022/07/28 12:58:28;;;;;;;2.38;1.50;;;;;;;;;;5134869;27;20290;-67
2022/07/28 13:00:55;;;;;;;1.75;1.60;;;;;;;;;;5133880;27;20295;-67
2022/07/28 13:03:24;;;;;;;1.77;1.30;;;;;;;;;;5133048;27;20313;-67
2022/07/28 13:06:04;;;;;;;1.45;1.35;;;;;;;;;;5133367;27;20226;-67
2022/07/28 13:08:43;;;;;;;1.50;1.40;;;;;;;;;;5134612;27;20230;-67
2022/07/28 13:11:11;;;;;;;2.17;1.40;;;;;;;;;;5133789;27;20275;-68
2022/07/28 13:13:45;;;;;;;1.85;1.40;;;;;;;;;;5134477;27;20215;-67
2022/07/28 13:16:14;;;;;;;1.85;1.63;;;;;;;;;;5133227;27;20222;-67
2022/07/28 13:18:41;;;;;;;2.92;1.50;;;;;;;;;;5133645;27;20231;-67
2022/07/28 13:21:10;;;;;;;1.63;1.42;;;;;;;;;;5133673;27;20291;-67
2022/07/28 13:23:37;;;;;;;1.40;1.30;;;;;;;;;;5133544;27;20222;-67
2022/07/28 13:26:06;;;;;;;1.77;1.33;;;;;;;;;;5133342;27;20213;-67
2022/07/28 13:28:34;;;;;;;1.67;1.50;;;;;;;;;;5134762;27;20590;-66
2022/07/28 13:31:01;;;;;;;1.48;1.38;;;;;;;;;;5134909;27;20221;-67
2022/07/28 13:33:28;;;;;;;1.45;1.35;;;;;;;;;;5119719;27;20209;-67
2022/07/28 13:35:57;;;;;;;1.33;1.20;;;;;;;;;;5133012;27;20224;-67
2022/07/28 13:38:24;;;;;;;1.50;1.40;;;;;;;;;;5096250;27;20801;-67
2022/07/28 13:40:52;;;;;;;2.22;1.60;;;;;;;;;;5116870;27;20343;-67
2022/07/28 13:43:20;;;;;;;1.52;1.42;;;;;;;;;;5117599;27;20231;-67
2022/07/28 13:45:48;;;;;;;1.67;1.55;;;;;;;;;;5113793;28;20349;-67
2022/07/28 13:48:15;;;;;;;1.55;1.40;;;;;;;;;;5113923;28;20230;-67
2022/07/28 13:50:42;;;;;;;1.55;1.40;;;;;;;;;;5127327;27;20218;-67
2022/07/28 13:55:54;;;;;;;1.30;1.20;;;;;;;;;;5133406;27;20217;-67
2022/07/28 13:58:23;;;;;;;1.65;1.40;;;;;;;;;;5134464;27;20290;-67
2022/07/28 14:00:50;;;;;;;1.77;1.42;;;;;;;;;;5134473;27;20569;-67
2022/07/28 14:03:17;;;;;;;1.58;1.40;;;;;;;;;;5117931;28;20626;-67
2022/07/28 14:05:45;;;;;;;1.40;1.30;;;;;;;;;;5120633;27;20302;-67
2022/07/28 14:08:17;;;;;;;1.60;1.50;;;;;;;;;;5133604;27;20222;-67
2022/07/28 14:10:44;;;;;;;1.92;1.38;;;;;;;;;;5132795;27;20268;-67
2022/07/28 14:13:12;;;;;;;2.58;1.45;;;;;;;;;;5134249;27;20241;-67
2022/07/28 14:15:41;;;;;;;1.40;1.30;;;;;;;;;;5125554;28;20222;-67
2022/07/28 14:18:08;;;;;;;1.58;1.42;;;;;;;;;;5114228;28;20239;-68
2022/07/28 14:20:36;;;;;;;1.42;1.33;;;;;;;;;;5114351;28;20234;-67
2022/07/28 14:23:03;;;;;;;1.50;1.40;;;;;;;;;;5134049;28;20226;-67
2022/07/28 14:25:32;;;;;;;1.40;1.27;;;;;;;;;;5132350;28;20222;-67
2022/07/28 14:28:01;;;;;;;1.35;1.27;;;;;;;;;;5130299;28;20287;-67
2022/07/28 14:30:29;;;;;;;1.40;1.30;;;;;;;;;;5134293;27;20310;-67
2022/07/28 14:32:58;;;;;;;1.35;1.25;;;;;;;;;;5132202;28;20605;-67
2022/07/28 14:35:26;;;;;;;1.38;1.27;;;;;;;;;;5114482;28;20226;-67
2022/07/28 14:37:53;;;;;;;1.20;1.10;;;;;;;;;;5129436;28;20226;-67
2022/07/28 14:40:20;;;;;;;1.85;1.70;;;;;;;;;;5136906;27;20226;-67
2022/07/28 14:42:47;;;;;;;1.33;1.23;;;;;;;;;;5136149;27;20226;-67
2022/07/28 14:45:15;;;;;;;1.55;1.40;;;;;;;;;;5137479;27;20581;-67
2022/07/28 14:47:42;;;;;;;1.42;1.33;;;;;;;;;;5125222;27;20494;-67
2022/07/28 14:50:11;;;;;;;1.75;1.40;;;;;;;;;;5117554;28;20231;-68
2022/07/28 14:52:38;;;;;;;1.67;1.50;;;;;;;;;;5134462;27;20226;-67
2022/07/28 14:55:06;;;;;;;1.60;1.50;;;;;;;;;;5137147;27;20230;-67
2022/07/28 14:57:33;;;;;;;1.08;1.08;;;;;;;;;;5137816;27;20232;-67